sensor_id;sensor_type;location;lat;lon;timestamp;P1;durP1;ratioP1;P2;durP2;ratioP2
966;SDS011;56108;48.730;9.304;2023-10-13T00:01:09;5.45;;;3.35;;
966;SDS011;56108;48.730;9.304;2023-10-13T00:03:19;3.47;;;3.00;;
966;SDS011;56108;48.730;9.304;2023-10-13T00:05:27;5.32;;;2.90;;
966;SDS011;56108;48.730;9.304;2023-10-13T00:07:39;4.88;;;2.80;;
966;SDS011;56108;48.730;9.304;2023-10-13T00:09:47;3.20;;;2.90;;
966;SDS011;56108;48.730;9.304;2023-10-13T00:11:55;3.67;;;2.72;;
966;SDS011;56108;48.730;9.304;2023-10-13T00:14:03;5.78;;;3.17;;
966;SDS011;56108;48.730;9.304;2023-10-13T00:16:14;6.63;;;3.60;;
966;SDS011;56108;48.730;9.304;2023-10-13T00:18:27;3.08;;;2.72;;
966;SDS011;56108;48.730;9.304;2023-10-13T00:20:39;3.05;;;2.80;;
966;SDS011;56108;48.730;9.304;2023-10-13T00:22:56;5.22;;;3.38;;
966;SDS011;56108;48.730;9.304;2023-10-13T00:25:06;3.92;;;3.17;;
966;SDS011;56108;48.730;9.304;2023-10-13T00:27:24;2.88;;;2.63;;
966;SDS011;56108;48.730;9.304;2023-10-13T00:29:38;5.38;;;3.25;;
966;SDS011;56108;48.730;9.304;2023-10-13T00:31:48;3.40;;;3.10;;
966;SDS011;56108;48.730;9.304;2023-10-13T00:33:58;4.25;;;3.00;;
966;SDS011;56108;48.730;9.304;2023-10-13T00:36:16;3.40;;;3.08;;
966;SDS011;56108;48.730;9.304;2023-10-13T00:38:27;4.20;;;3.25;;
966;SDS011;56108;48.730;9.304;2023-10-13T00:40:35;3.92;;;3.20;;
966;SDS011;56108;48.730;9.304;2023-10-13T00:42:48;5.50;;;4.05;;
966;SDS011;56108;48.730;9.304;2023-10-13T00:44:58;3.60;;;3.30;;
966;SDS011;56108;48.730;9.304;2023-10-13T00:47:05;3.75;;;3.17;;
966;SDS011;56108;48.730;9.304;2023-10-13T00:49:14;3.80;;;3.30;;
966;SDS011;56108;48.730;9.304;2023-10-13T00:51:20;3.60;;;2.70;;
966;SDS011;56108;48.730;9.304;2023-10-13T00:53:42;4.03;;;3.08;;
966;SDS011;56108;48.730;9.304;2023-10-13T00:55:49;4.45;;;3.05;;
966;SDS011;56108;48.730;9.304;2023-10-13T00:57:54;3.60;;;3.25;;
966;SDS011;56108;48.730;9.304;2023-10-13T01:00:08;4.63;;;3.28;;
966;SDS011;56108;48.730;9.304;2023-10-13T01:02:24;3.72;;;3.15;;
966;SDS011;56108;48.730;9.304;2023-10-13T01:04:45;6.05;;;3.33;;
966;SDS011;56108;48.730;9.304;2023-10-13T01:06:51;4.75;;;3.13;;
966;SDS011;56108;48.730;9.304;2023-10-13T01:09:03;3.03;;;2.80;;
966;SDS011;56108;48.730;9.304;2023-10-13T01:11:17;3.47;;;3.05;;
966;SDS011;56108;48.730;9.304;2023-10-13T01:13:28;5.75;;;3.13;;
966;SDS011;56108;48.730;9.304;2023-10-13T01:15:36;3.30;;;2.80;;
966;SDS011;56108;48.730;9.304;2023-10-13T01:17:46;5.60;;;3.03;;
966;SDS011;56108;48.730;9.304;2023-10-13T01:19:51;3.20;;;2.55;;
966;SDS011;56108;48.730;9.304;2023-10-13T01:22:03;3.72;;;2.67;;
966;SDS011;56108;48.730;9.304;2023-10-13T01:24:14;4.68;;;3.30;;
966;SDS011;56108;48.730;9.304;2023-10-13T01:26:28;3.17;;;2.90;;
966;SDS011;56108;48.730;9.304;2023-10-13T01:28:34;3.20;;;2.90;;
966;SDS011;56108;48.730;9.304;2023-10-13T01:30:49;3.67;;;2.95;;
966;SDS011;56108;48.730;9.304;2023-10-13T01:32:55;3.80;;;3.10;;
966;SDS011;56108;48.730;9.304;2023-10-13T01:35:06;3.63;;;3.33;;
966;SDS011;56108;48.730;9.304;2023-10-13T01:37:14;3.15;;;2.80;;
966;SDS011;56108;48.730;9.304;2023-10-13T01:39:27;3.88;;;3.40;;
966;SDS011;56108;48.730;9.304;2023-10-13T01:41:33;3.47;;;3.10;;
966;SDS011;56108;48.730;9.304;2023-10-13T01:43:44;3.67;;;3.35;;
966;SDS011;56108;48.730;9.304;2023-10-13T01:45:49;5.25;;;3.78;;
966;SDS011;56108;48.730;9.304;2023-10-13T01:47:58;4.13;;;3.47;;
966;SDS011;56108;48.730;9.304;2023-10-13T01:50:07;4.03;;;3.70;;
966;SDS011;56108;48.730;9.304;2023-10-13T01:52:26;5.00;;;3.53;;
966;SDS011;56108;48.730;9.304;2023-10-13T01:54:37;3.08;;;2.80;;
966;SDS011;56108;48.730;9.304;2023-10-13T01:56:46;3.67;;;3.30;;
966;SDS011;56108;48.730;9.304;2023-10-13T01:58:53;3.55;;;2.85;;
966;SDS011;56108;48.730;9.304;2023-10-13T02:01:02;3.30;;;2.65;;
966;SDS011;56108;48.730;9.304;2023-10-13T02:03:12;4.70;;;3.13;;
966;SDS011;56108;48.730;9.304;2023-10-13T02:05:23;3.90;;;3.45;;
966;SDS011;56108;48.730;9.304;2023-10-13T02:07:33;2.88;;;2.67;;
966;SDS011;56108;48.730;9.304;2023-10-13T02:09:48;8.77;;;3.42;;
966;SDS011;56108;48.730;9.304;2023-10-13T02:11:54;4.47;;;3.25;;
966;SDS011;56108;48.730;9.304;2023-10-13T02:14:02;4.80;;;3.50;;
966;SDS011;56108;48.730;9.304;2023-10-13T02:16:08;4.47;;;3.33;;
966;SDS011;56108;48.730;9.304;2023-10-13T02:18:23;3.20;;;2.95;;
966;SDS011;56108;48.730;9.304;2023-10-13T02:20:32;3.30;;;3.00;;
966;SDS011;56108;48.730;9.304;2023-10-13T02:22:47;6.03;;;3.22;;
966;SDS011;56108;48.730;9.304;2023-10-13T02:24:57;7.28;;;3.15;;
966;SDS011;56108;48.730;9.304;2023-10-13T02:27:11;3.83;;;3.20;;
966;SDS011;56108;48.730;9.304;2023-10-13T02:29:18;4.28;;;3.40;;
966;SDS011;56108;48.730;9.304;2023-10-13T02:31:27;3.50;;;2.63;;
966;SDS011;56108;48.730;9.304;2023-10-13T02:33:34;9.40;;;3.42;;
966;SDS011;56108;48.730;9.304;2023-10-13T02:35:50;4.50;;;3.13;;
966;SDS011;56108;48.730;9.304;2023-10-13T02:37:58;4.45;;;3.10;;
966;SDS011;56108;48.730;9.304;2023-10-13T02:40:18;5.18;;;3.22;;
966;SDS011;56108;48.730;9.304;2023-10-13T02:42:28;6.18;;;2.95;;
966;SDS011;56108;48.730;9.304;2023-10-13T02:44:36;2.92;;;2.72;;
966;SDS011;56108;48.730;9.304;2023-10-13T02:46:46;3.97;;;3.20;;
966;SDS011;56108;48.730;9.304;2023-10-13T02:48:56;6.15;;;3.65;;
966;SDS011;56108;48.730;9.304;2023-10-13T02:51:04;4.95;;;3.35;;
966;SDS011;56108;48.730;9.304;2023-10-13T02:53:20;4.38;;;2.55;;
966;SDS011;56108;48.730;9.304;2023-10-13T02:55:28;4.82;;;3.60;;
966;SDS011;56108;48.730;9.304;2023-10-13T02:57:37;6.65;;;3.30;;
966;SDS011;56108;48.730;9.304;2023-10-13T02:59:45;5.88;;;3.38;;
966;SDS011;56108;48.730;9.304;2023-10-13T03:02:01;3.22;;;2.92;;
966;SDS011;56108;48.730;9.304;2023-10-13T03:04:12;4.88;;;3.67;;
966;SDS011;56108;48.730;9.304;2023-10-13T03:06:28;5.30;;;2.97;;
966;SDS011;56108;48.730;9.304;2023-10-13T03:08:37;5.80;;;3.47;;
966;SDS011;56108;48.730;9.304;2023-10-13T03:10:50;3.38;;;3.08;;
966;SDS011;56108;48.730;9.304;2023-10-13T03:12:59;5.63;;;3.17;;
966;SDS011;56108;48.730;9.304;2023-10-13T03:15:08;3.30;;;3.00;;
966;SDS011;56108;48.730;9.304;2023-10-13T03:17:18;3.95;;;3.50;;
966;SDS011;56108;48.730;9.304;2023-10-13T03:19:38;4.88;;;3.92;;
966;SDS011;56108;48.730;9.304;2023-10-13T03:21:51;6.35;;;2.65;;
966;SDS011;56108;48.730;9.304;2023-10-13T03:24:11;5.32;;;3.30;;
966;SDS011;56108;48.730;9.304;2023-10-13T03:26:21;4.95;;;3.10;;
966;SDS011;56108;48.730;9.304;2023-10-13T03:28:29;4.85;;;3.22;;
966;SDS011;56108;48.730;9.304;2023-10-13T03:30:39;4.00;;;3.28;;
966;SDS011;56108;48.730;9.304;2023-10-13T03:32:48;4.40;;;3.40;;
966;SDS011;56108;48.730;9.304;2023-10-13T03:34:59;3.50;;;3.20;;
966;SDS011;56108;48.730;9.304;2023-10-13T03:37:18;5.60;;;3.80;;
966;SDS011;56108;48.730;9.304;2023-10-13T03:39:40;6.53;;;3.75;;
966;SDS011;56108;48.730;9.304;2023-10-13T03:41:53;6.78;;;3.53;;
966;SDS011;56108;48.730;9.304;2023-10-13T03:44:01;4.85;;;3.85;;
966;SDS011;56108;48.730;9.304;2023-10-13T03:46:20;4.13;;;3.50;;
966;SDS011;56108;48.730;9.304;2023-10-13T03:48:29;3.92;;;3.30;;
966;SDS011;56108;48.730;9.304;2023-10-13T03:50:46;3.53;;;2.92;;
966;SDS011;56108;48.730;9.304;2023-10-13T03:53:06;4.13;;;3.50;;
966;SDS011;56108;48.730;9.304;2023-10-13T03:55:19;5.75;;;3.80;;
966;SDS011;56108;48.730;9.304;2023-10-13T03:57:34;5.20;;;3.60;;
966;SDS011;56108;48.730;9.304;2023-10-13T03:59:45;4.60;;;3.13;;
966;SDS011;56108;48.730;9.304;2023-10-13T04:01:53;4.07;;;3.05;;
966;SDS011;56108;48.730;9.304;2023-10-13T04:04:08;5.65;;;3.22;;
966;SDS011;56108;48.730;9.304;2023-10-13T04:06:16;5.85;;;4.30;;
966;SDS011;56108;48.730;9.304;2023-10-13T04:08:46;8.90;;;5.25;;
966;SDS011;56108;48.730;9.304;2023-10-13T04:11:13;5.65;;;3.97;;
966;SDS011;56108;48.730;9.304;2023-10-13T04:13:37;4.82;;;3.97;;
966;SDS011;56108;48.730;9.304;2023-10-13T04:16:17;4.35;;;3.40;;
966;SDS011;56108;48.730;9.304;2023-10-13T04:18:40;5.03;;;3.78;;
966;SDS011;56108;48.730;9.304;2023-10-13T04:20:55;4.35;;;3.35;;
966;SDS011;56108;48.730;9.304;2023-10-13T04:23:15;6.65;;;3.72;;
966;SDS011;56108;48.730;9.304;2023-10-13T04:25:24;6.32;;;3.55;;
966;SDS011;56108;48.730;9.304;2023-10-13T04:27:40;6.60;;;3.50;;
966;SDS011;56108;48.730;9.304;2023-10-13T04:30:01;6.00;;;4.22;;
966;SDS011;56108;48.730;9.304;2023-10-13T04:32:15;4.28;;;3.67;;
966;SDS011;56108;48.730;9.304;2023-10-13T04:34:33;5.13;;;3.50;;
966;SDS011;56108;48.730;9.304;2023-10-13T04:36:44;6.97;;;4.13;;
966;SDS011;56108;48.730;9.304;2023-10-13T04:39:00;8.38;;;3.80;;
966;SDS011;56108;48.730;9.304;2023-10-13T04:41:14;5.80;;;4.07;;
966;SDS011;56108;48.730;9.304;2023-10-13T04:43:27;5.68;;;3.83;;
966;SDS011;56108;48.730;9.304;2023-10-13T04:46:02;5.32;;;3.67;;
966;SDS011;56108;48.730;9.304;2023-10-13T04:48:41;6.03;;;3.78;;
966;SDS011;56108;48.730;9.304;2023-10-13T04:50:52;5.53;;;4.05;;
966;SDS011;56108;48.730;9.304;2023-10-13T04:53:23;4.53;;;3.42;;
966;SDS011;56108;48.730;9.304;2023-10-13T04:55:38;6.53;;;3.25;;
966;SDS011;56108;48.730;9.304;2023-10-13T04:58:04;5.93;;;3.70;;
966;SDS011;56108;48.730;9.304;2023-10-13T05:00:19;6.45;;;3.85;;
966;SDS011;56108;48.730;9.304;2023-10-13T05:02:48;13.95;;;4.55;;
966;SDS011;56108;48.730;9.304;2023-10-13T05:05:21;7.45;;;3.97;;
966;SDS011;56108;48.730;9.304;2023-10-13T05:07:50;9.65;;;4.00;;
966;SDS011;56108;48.730;9.304;2023-10-13T05:10:10;4.05;;;3.65;;
966;SDS011;56108;48.730;9.304;2023-10-13T05:12:31;6.25;;;3.45;;
966;SDS011;56108;48.730;9.304;2023-10-13T05:14:52;6.82;;;4.30;;
966;SDS011;56108;48.730;9.304;2023-10-13T05:17:16;4.40;;;3.55;;
966;SDS011;56108;48.730;9.304;2023-10-13T05:19:54;4.80;;;3.90;;
966;SDS011;56108;48.730;9.304;2023-10-13T05:22:16;6.50;;;4.03;;
966;SDS011;56108;48.730;9.304;2023-10-13T05:24:46;5.78;;;3.72;;
966;SDS011;56108;48.730;9.304;2023-10-13T05:27:06;5.00;;;3.80;;
966;SDS011;56108;48.730;9.304;2023-10-13T05:29:27;4.85;;;4.00;;
966;SDS011;56108;48.730;9.304;2023-10-13T05:31:48;8.02;;;4.40;;
966;SDS011;56108;48.730;9.304;2023-10-13T05:34:08;6.18;;;4.25;;
966;SDS011;56108;48.730;9.304;2023-10-13T05:36:32;6.85;;;4.18;;
966;SDS011;56108;48.730;9.304;2023-10-13T05:38:53;6.40;;;3.97;;
966;SDS011;56108;48.730;9.304;2023-10-13T05:41:13;6.72;;;4.40;;
966;SDS011;56108;48.730;9.304;2023-10-13T05:43:34;6.80;;;3.42;;
966;SDS011;56108;48.730;9.304;2023-10-13T05:46:00;5.82;;;3.70;;
966;SDS011;56108;48.730;9.304;2023-10-13T05:48:22;8.52;;;3.90;;
966;SDS011;56108;48.730;9.304;2023-10-13T05:50:46;4.68;;;4.00;;
966;SDS011;56108;48.730;9.304;2023-10-13T05:53:05;7.88;;;4.63;;
966;SDS011;56108;48.730;9.304;2023-10-13T05:55:26;3.65;;;3.30;;
966;SDS011;56108;48.730;9.304;2023-10-13T05:57:47;5.55;;;3.70;;
966;SDS011;56108;48.730;9.304;2023-10-13T06:00:08;4.97;;;3.75;;
966;SDS011;56108;48.730;9.304;2023-10-13T06:02:29;5.50;;;3.92;;
966;SDS011;56108;48.730;9.304;2023-10-13T06:04:50;8.68;;;3.80;;
966;SDS011;56108;48.730;9.304;2023-10-13T06:07:10;5.50;;;3.97;;
966;SDS011;56108;48.730;9.304;2023-10-13T06:09:34;6.50;;;3.88;;
966;SDS011;56108;48.730;9.304;2023-10-13T06:11:54;4.57;;;4.18;;
966;SDS011;56108;48.730;9.304;2023-10-13T06:14:15;4.55;;;3.90;;
966;SDS011;56108;48.730;9.304;2023-10-13T06:16:35;7.40;;;4.20;;
966;SDS011;56108;48.730;9.304;2023-10-13T06:18:57;6.45;;;4.20;;
966;SDS011;56108;48.730;9.304;2023-10-13T06:21:27;5.22;;;3.95;;
966;SDS011;56108;48.730;9.304;2023-10-13T06:23:47;4.80;;;3.03;;
966;SDS011;56108;48.730;9.304;2023-10-13T06:26:11;5.70;;;4.00;;
966;SDS011;56108;48.730;9.304;2023-10-13T06:28:31;6.03;;;3.55;;
966;SDS011;56108;48.730;9.304;2023-10-13T06:30:55;8.10;;;3.97;;
966;SDS011;56108;48.730;9.304;2023-10-13T06:33:01;5.25;;;4.20;;
966;SDS011;56108;48.730;9.304;2023-10-13T06:35:10;4.90;;;4.00;;
966;SDS011;56108;48.730;9.304;2023-10-13T06:37:24;6.43;;;4.10;;
966;SDS011;56108;48.730;9.304;2023-10-13T06:39:35;7.75;;;4.00;;
966;SDS011;56108;48.730;9.304;2023-10-13T06:41:43;5.40;;;4.28;;
966;SDS011;56108;48.730;9.304;2023-10-13T06:43:52;5.38;;;4.30;;
966;SDS011;56108;48.730;9.304;2023-10-13T06:46:10;5.32;;;4.70;;
966;SDS011;56108;48.730;9.304;2023-10-13T06:48:21;8.50;;;4.03;;
966;SDS011;56108;48.730;9.304;2023-10-13T06:50:27;5.90;;;3.22;;
966;SDS011;56108;48.730;9.304;2023-10-13T06:52:44;5.18;;;4.35;;
966;SDS011;56108;48.730;9.304;2023-10-13T06:54:53;5.78;;;3.55;;
966;SDS011;56108;48.730;9.304;2023-10-13T06:57:06;6.72;;;4.20;;
966;SDS011;56108;48.730;9.304;2023-10-13T06:59:19;4.22;;;3.83;;
966;SDS011;56108;48.730;9.304;2023-10-13T07:01:32;4.70;;;3.83;;
966;SDS011;56108;48.730;9.304;2023-10-13T07:03:44;7.63;;;4.75;;
966;SDS011;56108;48.730;9.304;2023-10-13T07:05:57;6.75;;;4.00;;
966;SDS011;56108;48.730;9.304;2023-10-13T07:08:06;4.68;;;4.20;;
966;SDS011;56108;48.730;9.304;2023-10-13T07:10:19;5.45;;;3.65;;
966;SDS011;56108;48.730;9.304;2023-10-13T07:12:37;5.82;;;4.20;;
966;SDS011;56108;48.730;9.304;2023-10-13T07:14:48;5.97;;;3.90;;
966;SDS011;56108;48.730;9.304;2023-10-13T07:17:05;7.18;;;4.18;;
966;SDS011;56108;48.730;9.304;2023-10-13T07:19:14;5.85;;;4.50;;
966;SDS011;56108;48.730;9.304;2023-10-13T07:21:27;4.70;;;4.00;;
966;SDS011;56108;48.730;9.304;2023-10-13T07:23:37;4.93;;;4.45;;
966;SDS011;56108;48.730;9.304;2023-10-13T07:25:51;4.20;;;3.85;;
966;SDS011;56108;48.730;9.304;2023-10-13T07:28:10;6.93;;;4.32;;
966;SDS011;56108;48.730;9.304;2023-10-13T07:30:20;6.88;;;4.30;;
966;SDS011;56108;48.730;9.304;2023-10-13T07:32:31;6.80;;;4.72;;
966;SDS011;56108;48.730;9.304;2023-10-13T07:34:39;5.97;;;5.07;;
966;SDS011;56108;48.730;9.304;2023-10-13T07:36:47;5.40;;;4.88;;
966;SDS011;56108;48.730;9.304;2023-10-13T07:38:56;5.05;;;4.55;;
966;SDS011;56108;48.730;9.304;2023-10-13T07:41:37;4.50;;;3.78;;
966;SDS011;56108;48.730;9.304;2023-10-13T07:43:49;5.20;;;4.28;;
966;SDS011;56108;48.730;9.304;2023-10-13T07:45:57;5.72;;;4.47;;
966;SDS011;56108;48.730;9.304;2023-10-13T07:48:11;7.07;;;4.70;;
966;SDS011;56108;48.730;9.304;2023-10-13T07:50:25;6.88;;;4.95;;
966;SDS011;56108;48.730;9.304;2023-10-13T07:52:37;4.57;;;4.13;;
966;SDS011;56108;48.730;9.304;2023-10-13T07:55:03;6.40;;;4.43;;
966;SDS011;56108;48.730;9.304;2023-10-13T07:57:25;7.90;;;5.40;;
966;SDS011;56108;48.730;9.304;2023-10-13T07:59:38;7.22;;;4.35;;
966;SDS011;56108;48.730;9.304;2023-10-13T08:01:52;4.40;;;3.92;;
966;SDS011;56108;48.730;9.304;2023-10-13T08:04:14;6.68;;;4.80;;
966;SDS011;56108;48.730;9.304;2023-10-13T08:06:33;6.65;;;4.60;;
966;SDS011;56108;48.730;9.304;2023-10-13T08:08:42;6.18;;;4.28;;
966;SDS011;56108;48.730;9.304;2023-10-13T08:10:57;7.65;;;4.60;;
966;SDS011;56108;48.730;9.304;2023-10-13T08:13:13;6.00;;;4.75;;
966;SDS011;56108;48.730;9.304;2023-10-13T08:15:26;4.47;;;4.07;;
966;SDS011;56108;48.730;9.304;2023-10-13T08:17:39;7.57;;;4.60;;
966;SDS011;56108;48.730;9.304;2023-10-13T08:19:49;8.82;;;4.57;;
966;SDS011;56108;48.730;9.304;2023-10-13T08:21:58;10.23;;;4.10;;
966;SDS011;56108;48.730;9.304;2023-10-13T08:24:28;8.15;;;5.28;;
966;SDS011;56108;48.730;9.304;2023-10-13T08:26:54;8.10;;;4.45;;
966;SDS011;56108;48.730;9.304;2023-10-13T08:29:18;5.32;;;3.67;;
966;SDS011;56108;48.730;9.304;2023-10-13T08:31:41;9.00;;;4.60;;
966;SDS011;56108;48.730;9.304;2023-10-13T08:33:55;5.50;;;3.97;;
966;SDS011;56108;48.730;9.304;2023-10-13T08:36:11;5.47;;;3.47;;
966;SDS011;56108;48.730;9.304;2023-10-13T08:38:33;7.38;;;4.22;;
966;SDS011;56108;48.730;9.304;2023-10-13T08:40:57;4.07;;;3.67;;
966;SDS011;56108;48.730;9.304;2023-10-13T08:43:19;11.48;;;4.40;;
966;SDS011;56108;48.730;9.304;2023-10-13T08:45:28;3.60;;;3.30;;
966;SDS011;56108;48.730;9.304;2023-10-13T08:47:53;5.63;;;3.78;;
966;SDS011;56108;48.730;9.304;2023-10-13T08:50:12;7.00;;;4.15;;
966;SDS011;56108;48.730;9.304;2023-10-13T08:52:41;4.05;;;3.50;;
966;SDS011;56108;48.730;9.304;2023-10-13T08:54:54;4.35;;;3.65;;
966;SDS011;56108;48.730;9.304;2023-10-13T08:57:41;5.63;;;3.75;;
966;SDS011;56108;48.730;9.304;2023-10-13T08:59:54;6.15;;;4.00;;
966;SDS011;56108;48.730;9.304;2023-10-13T09:02:23;4.38;;;3.92;;
966;SDS011;56108;48.730;9.304;2023-10-13T09:04:46;6.30;;;3.70;;
966;SDS011;56108;48.730;9.304;2023-10-13T09:07:05;4.30;;;3.03;;
966;SDS011;56108;48.730;9.304;2023-10-13T09:09:14;8.20;;;3.30;;
966;SDS011;56108;48.730;9.304;2023-10-13T09:11:39;6.55;;;3.50;;
966;SDS011;56108;48.730;9.304;2023-10-13T09:13:54;3.30;;;3.00;;
966;SDS011;56108;48.730;9.304;2023-10-13T09:16:09;7.93;;;3.35;;
966;SDS011;56108;48.730;9.304;2023-10-13T09:18:24;5.03;;;3.00;;
966;SDS011;56108;48.730;9.304;2023-10-13T09:20:47;6.47;;;3.30;;
966;SDS011;56108;48.730;9.304;2023-10-13T09:23:16;2.92;;;2.70;;
966;SDS011;56108;48.730;9.304;2023-10-13T09:25:29;6.17;;;4.10;;
966;SDS011;56108;48.730;9.304;2023-10-13T09:27:40;6.43;;;3.40;;
966;SDS011;56108;48.730;9.304;2023-10-13T09:29:54;6.77;;;3.57;;
966;SDS011;56108;48.730;9.304;2023-10-13T09:32:02;5.57;;;3.20;;
966;SDS011;56108;48.730;9.304;2023-10-13T09:34:09;6.77;;;2.63;;
966;SDS011;56108;48.730;9.304;2023-10-13T09:36:20;4.10;;;3.00;;
966;SDS011;56108;48.730;9.304;2023-10-13T09:38:26;7.50;;;2.70;;
966;SDS011;56108;48.730;9.304;2023-10-13T09:40:36;5.40;;;2.60;;
966;SDS011;56108;48.730;9.304;2023-10-13T09:42:43;5.23;;;2.50;;
966;SDS011;56108;48.730;9.304;2023-10-13T09:44:52;2.57;;;2.37;;
966;SDS011;56108;48.730;9.304;2023-10-13T09:47:04;2.97;;;2.67;;
966;SDS011;56108;48.730;9.304;2023-10-13T09:49:22;4.57;;;2.63;;
966;SDS011;56108;48.730;9.304;2023-10-13T09:51:52;4.50;;;2.87;;
966;SDS011;56108;48.730;9.304;2023-10-13T09:54:06;4.53;;;2.60;;
966;SDS011;56108;48.730;9.304;2023-10-13T09:56:21;6.13;;;2.50;;
966;SDS011;56108;48.730;9.304;2023-10-13T09:58:35;3.20;;;2.50;;
966;SDS011;56108;48.730;9.304;2023-10-13T10:00:43;6.83;;;2.70;;
966;SDS011;56108;48.730;9.304;2023-10-13T10:02:55;4.00;;;2.60;;
966;SDS011;56108;48.730;9.304;2023-10-13T10:05:23;5.00;;;2.70;;
966;SDS011;56108;48.730;9.304;2023-10-13T10:07:35;4.70;;;2.40;;
966;SDS011;56108;48.730;9.304;2023-10-13T10:09:40;5.77;;;2.70;;
966;SDS011;56108;48.730;9.304;2023-10-13T10:12:06;4.60;;;3.07;;
966;SDS011;56108;48.730;9.304;2023-10-13T10:14:24;18.70;;;7.30;;
966;SDS011;56108;48.730;9.304;2023-10-13T10:16:52;4.57;;;3.00;;
966;SDS011;56108;48.730;9.304;2023-10-13T10:19:13;2.40;;;2.20;;
966;SDS011;56108;48.730;9.304;2023-10-13T10:21:32;3.50;;;2.63;;
966;SDS011;56108;48.730;9.304;2023-10-13T10:23:48;4.70;;;2.80;;
966;SDS011;56108;48.730;9.304;2023-10-13T10:26:08;2.37;;;2.17;;
966;SDS011;56108;48.730;9.304;2023-10-13T10:28:25;7.50;;;2.63;;
966;SDS011;56108;48.730;9.304;2023-10-13T10:30:44;3.03;;;2.57;;
966;SDS011;56108;48.730;9.304;2023-10-13T10:32:54;10.00;;;2.57;;
966;SDS011;56108;48.730;9.304;2023-10-13T10:35:07;9.10;;;4.27;;
966;SDS011;56108;48.730;9.304;2023-10-13T10:37:14;11.10;;;10.03;;
966;SDS011;56108;48.730;9.304;2023-10-13T10:39:35;28.30;;;19.30;;
966;SDS011;56108;48.730;9.304;2023-10-13T10:41:50;32.27;;;24.83;;
966;SDS011;56108;48.730;9.304;2023-10-13T10:44:09;16.60;;;13.83;;
966;SDS011;56108;48.730;9.304;2023-10-13T10:46:25;7.50;;;3.20;;
966;SDS011;56108;48.730;9.304;2023-10-13T10:48:43;8.57;;;7.53;;
966;SDS011;56108;48.730;9.304;2023-10-13T10:50:53;4.50;;;3.73;;
966;SDS011;56108;48.730;9.304;2023-10-13T10:53:00;9.00;;;5.30;;
966;SDS011;56108;48.730;9.304;2023-10-13T10:55:19;3.97;;;2.87;;
966;SDS011;56108;48.730;9.304;2023-10-13T10:57:33;2.60;;;1.90;;
966;SDS011;56108;48.730;9.304;2023-10-13T10:59:42;6.47;;;4.60;;
966;SDS011;56108;48.730;9.304;2023-10-13T11:01:51;11.23;;;4.53;;
966;SDS011;56108;48.730;9.304;2023-10-13T11:03:58;5.00;;;3.47;;
966;SDS011;56108;48.730;9.304;2023-10-13T11:06:13;5.37;;;2.40;;
966;SDS011;56108;48.730;9.304;2023-10-13T11:08:25;3.93;;;2.20;;
966;SDS011;56108;48.730;9.304;2023-10-13T11:10:48;5.80;;;3.07;;
966;SDS011;56108;48.730;9.304;2023-10-13T11:12:56;4.43;;;2.33;;
966;SDS011;56108;48.730;9.304;2023-10-13T11:15:16;2.67;;;2.43;;
966;SDS011;56108;48.730;9.304;2023-10-13T11:17:27;7.73;;;3.70;;
966;SDS011;56108;48.730;9.304;2023-10-13T11:19:47;2.50;;;2.30;;
966;SDS011;56108;48.730;9.304;2023-10-13T11:21:55;5.07;;;2.10;;
966;SDS011;56108;48.730;9.304;2023-10-13T11:24:02;5.33;;;3.80;;
966;SDS011;56108;48.730;9.304;2023-10-13T11:26:16;3.97;;;3.07;;
966;SDS011;56108;48.730;9.304;2023-10-13T11:28:27;3.47;;;2.40;;
966;SDS011;56108;48.730;9.304;2023-10-13T11:30:39;4.63;;;2.60;;
966;SDS011;56108;48.730;9.304;2023-10-13T11:32:56;2.70;;;2.47;;
966;SDS011;56108;48.730;9.304;2023-10-13T11:35:02;6.90;;;2.80;;
966;SDS011;56108;48.730;9.304;2023-10-13T11:37:25;2.57;;;2.37;;
966;SDS011;56108;48.730;9.304;2023-10-13T11:39:43;3.47;;;2.77;;
966;SDS011;56108;48.730;9.304;2023-10-13T11:41:54;4.17;;;2.23;;
966;SDS011;56108;48.730;9.304;2023-10-13T11:44:02;3.43;;;2.30;;
966;SDS011;56108;48.730;9.304;2023-10-13T11:46:18;3.13;;;2.73;;
966;SDS011;56108;48.730;9.304;2023-10-13T11:48:41;4.27;;;2.10;;
966;SDS011;56108;48.730;9.304;2023-10-13T11:50:51;3.53;;;2.30;;
966;SDS011;56108;48.730;9.304;2023-10-13T11:52:59;3.07;;;2.40;;
966;SDS011;56108;48.730;9.304;2023-10-13T11:55:12;4.07;;;2.70;;
966;SDS011;56108;48.730;9.304;2023-10-13T11:57:25;7.83;;;2.10;;
966;SDS011;56108;48.730;9.304;2023-10-13T11:59:33;6.07;;;2.13;;
966;SDS011;56108;48.730;9.304;2023-10-13T12:01:41;5.63;;;2.67;;
966;SDS011;56108;48.730;9.304;2023-10-13T12:04:03;3.93;;;2.60;;
966;SDS011;56108;48.730;9.304;2023-10-13T12:06:27;2.23;;;2.03;;
966;SDS011;56108;48.730;9.304;2023-10-13T12:08:51;6.30;;;2.80;;
966;SDS011;56108;48.730;9.304;2023-10-13T12:10:59;3.10;;;1.87;;
966;SDS011;56108;48.730;9.304;2023-10-13T12:13:28;3.83;;;2.57;;
966;SDS011;56108;48.730;9.304;2023-10-13T12:15:37;3.77;;;2.70;;
966;SDS011;56108;48.730;9.304;2023-10-13T12:17:53;5.70;;;2.53;;
966;SDS011;56108;48.730;9.304;2023-10-13T12:20:04;7.40;;;2.30;;
966;SDS011;56108;48.730;9.304;2023-10-13T12:22:15;3.03;;;2.50;;
966;SDS011;56108;48.730;9.304;2023-10-13T12:24:30;5.60;;;2.20;;
966;SDS011;56108;48.730;9.304;2023-10-13T12:26:44;2.20;;;2.00;;
966;SDS011;56108;48.730;9.304;2023-10-13T12:28:55;2.93;;;2.30;;
966;SDS011;56108;48.730;9.304;2023-10-13T12:31:11;4.80;;;2.40;;
966;SDS011;56108;48.730;9.304;2023-10-13T12:33:22;3.60;;;2.60;;
966;SDS011;56108;48.730;9.304;2023-10-13T12:35:29;5.70;;;2.37;;
966;SDS011;56108;48.730;9.304;2023-10-13T12:37:40;4.40;;;2.40;;
966;SDS011;56108;48.730;9.304;2023-10-13T12:39:54;4.03;;;2.77;;
966;SDS011;56108;48.730;9.304;2023-10-13T12:42:15;3.03;;;2.33;;
966;SDS011;56108;48.730;9.304;2023-10-13T12:44:38;3.23;;;2.40;;
966;SDS011;56108;48.730;9.304;2023-10-13T12:46:59;7.03;;;2.50;;
966;SDS011;56108;48.730;9.304;2023-10-13T12:49:22;2.97;;;2.43;;
966;SDS011;56108;48.730;9.304;2023-10-13T12:51:44;2.70;;;2.50;;
966;SDS011;56108;48.730;9.304;2023-10-13T12:54:01;4.03;;;2.70;;
966;SDS011;56108;48.730;9.304;2023-10-13T12:56:11;3.83;;;3.07;;
966;SDS011;56108;48.730;9.304;2023-10-13T12:58:19;2.47;;;2.27;;
966;SDS011;56108;48.730;9.304;2023-10-13T13:00:34;3.40;;;3.10;;
966;SDS011;56108;48.730;9.304;2023-10-13T13:02:45;3.50;;;1.93;;
966;SDS011;56108;48.730;9.304;2023-10-13T13:04:51;4.13;;;2.50;;
966;SDS011;56108;48.730;9.304;2023-10-13T13:07:06;2.50;;;2.20;;
966;SDS011;56108;48.730;9.304;2023-10-13T13:09:18;2.30;;;2.10;;
966;SDS011;56108;48.730;9.304;2023-10-13T13:11:30;4.23;;;2.23;;
966;SDS011;56108;48.730;9.304;2023-10-13T13:13:44;5.30;;;2.63;;
966;SDS011;56108;48.730;9.304;2023-10-13T13:15:55;3.53;;;2.60;;
966;SDS011;56108;48.730;9.304;2023-10-13T13:18:03;2.50;;;2.30;;
966;SDS011;56108;48.730;9.304;2023-10-13T13:20:18;3.20;;;2.63;;
966;SDS011;56108;48.730;9.304;2023-10-13T13:22:35;11.47;;;3.63;;
966;SDS011;56108;48.730;9.304;2023-10-13T13:24:44;3.23;;;2.10;;
966;SDS011;56108;48.730;9.304;2023-10-13T13:26:52;3.97;;;2.20;;
966;SDS011;56108;48.730;9.304;2023-10-13T13:28:59;4.80;;;2.70;;
966;SDS011;56108;48.730;9.304;2023-10-13T13:31:11;3.60;;;2.30;;
966;SDS011;56108;48.730;9.304;2023-10-13T13:33:20;2.10;;;1.90;;
966;SDS011;56108;48.730;9.304;2023-10-13T13:35:31;10.20;;;2.43;;
966;SDS011;56108;48.730;9.304;2023-10-13T13:37:39;7.20;;;2.50;;
966;SDS011;56108;48.730;9.304;2023-10-13T13:39:49;2.60;;;2.40;;
966;SDS011;56108;48.730;9.304;2023-10-13T13:41:58;4.00;;;2.33;;
966;SDS011;56108;48.730;9.304;2023-10-13T13:44:06;2.43;;;2.23;;
966;SDS011;56108;48.730;9.304;2023-10-13T13:46:24;4.33;;;3.17;;
966;SDS011;56108;48.730;9.304;2023-10-13T13:48:38;2.30;;;2.10;;
966;SDS011;56108;48.730;9.304;2023-10-13T13:50:47;2.53;;;2.30;;
966;SDS011;56108;48.730;9.304;2023-10-13T13:53:00;2.40;;;2.20;;
966;SDS011;56108;48.730;9.304;2023-10-13T13:55:13;4.00;;;2.07;;
966;SDS011;56108;48.730;9.304;2023-10-13T13:57:22;2.70;;;2.30;;